Jackson, Michigan
Current Conditions -  °F | °C
As of 5:56 AM on Wednesday 22 Oct 2014 (Local Time) from KJXN Reporting Station
Overcast Overcast  
Wind Chill: 33°   Ceiling: 2100
Heat Index: 38°   Visibility: 10mi
Dew Point: 35°   Wind: 6mph
Humidity: 89%   Direction: 300°WNW
Pressure: 30.28"   Gusts: NA
Location:  42.24°N, 84.4°W
Report Text: KJXN 220956Z 30005KT 10SM OVC021 03/02 A3028 RMK AO2 SLP261 T00330017
Loading
Personal Weather Stations






























Interactive Weather Map
Tropical Storm Tracking
New forecast layout! Learn more

10-Day Weather Forecast

Advertisements
Track Severe Weather on mobile